• Join FlightAware (Why Join?)
  • Login
  • US Flag 
02:55PM EDT


 

Airport Tracker/Info


-or-


 

Live Flight TrackerFlight Track Log ✈ N806LW ✈ 25-Jul-2013 ✈ KMCC - KSDL

Flight Track Log - Related Links

Times and Time Zones

All times are in EDT time to prevent confusion due to time zone crossing. See the N806LW flight status page for this flight to view local times or setup timezone preferences in your user account.

Time Position Orientation Groundspeed Altitude Reporting Facility
EDT Latitude Longitude Course Direction KTS MPH feet Rate Location/Type
06:25PM 38.6167 -121.4000 149° Southeast 173 199 2,500  Level Northern Cal TRACON
06:26PM 38.5667 -121.3667 152° Southeast 177 204 4,100 1,680 Climbing Northern Cal TRACON
06:27PM 38.5542 -121.3392 120° Southeast 181 208 5,100 1,560 Climbing Oakland Center
06:28PM 38.5192 -121.2928 134° Southeast 182 209 6,700 1,500 Climbing Oakland Center
06:29PM 38.4833 -121.2428 132° Southeast 188 216 8,200 1,560 Climbing Oakland Center
06:30PM 38.4494 -121.1950 132° Southeast 185 213 9,900 1,500 Climbing Oakland Center
06:31PM 38.3059 -121.1086 149° Southeast  Level FlightAware Approximate
06:31PM 38.4186 -121.1531 133° Southeast 175 201 11,300  Level Oakland Center
06:32PM 38.3869 -121.1033 129° Southeast 177 204 12,800 1,560 Climbing Oakland Center
06:33PM 38.3506 -121.0467 129° Southeast 174 200 14,600 1,560 Climbing Oakland Center
06:34PM 38.3219 -121.0003 128° Southeast 169 194 16,000 1,260 Climbing Oakland Center
06:35PM 38.2911 -120.9542 130° Southeast 169 194 17,200 1,140 Climbing Oakland Center
06:36PM 38.2581 -120.9069 132° Southeast 176 203 18,400 840 Climbing Oakland Center
06:37PM 38.2244 -120.8578 131° Southeast 181 208 19,000 360 Climbing Oakland Center
06:38PM 38.1811 -120.8000 134° Southeast 215 247 19,200 900 Climbing Oakland Center
06:39PM 38.1411 -120.7439 132° Southeast 217 250 20,900 1,320 Climbing Oakland Center
06:40PM 38.1131 -120.6961 127° Southeast 177 204 22,000 1,020 Climbing Oakland Center
06:41PM 38.0653 -120.6511 143° Southeast 177 204 23,000 480 Climbing Oakland Center
06:42PM 38.0117 -120.6211 156° South 201 231 23,000  Level Oakland Center
06:43PM 37.9547 -120.5775 149° Southeast 235 270 23,000  Level Oakland Center
06:44PM 37.8953 -120.5336 150° Southeast 246 283 23,000 660 Level Oakland Center
06:45PM 37.8397 -120.4983 153° Southeast 224 258 24,400 1,260 Climbing Oakland Center
06:46PM 37.7961 -120.4639 148° Southeast 189 217 25,600 960 Climbing Oakland Center
06:47PM 37.7519 -120.4344 152° Southeast 179 206 26,400 660 Climbing Oakland Center
06:48PM 37.7067 -120.4050 153° Southeast 181 208 27,000 240 Climbing Oakland Center
06:49PM 37.6444 -120.3603 150° Southeast 212 244 27,000  Level Oakland Center
06:50PM 37.5833 -120.3214 153° Southeast 241 277 27,000  Level Oakland Center
06:51PM 37.5222 -120.2786 151° Southeast 250 288 27,000  Level Oakland Center
06:52PM 37.4600 -120.2358 151° Southeast 253 291 27,000  Level Oakland Center
06:54PM 37.3819 -120.1919 156° South  Level FlightAware Approximate
06:54PM 37.3531 -120.1675 156° South 256 295 27,000  Level Los Angeles Center
06:55PM 37.2911 -120.1269 152° Southeast 254 292 27,000  Level Los Angeles Center
06:56PM 37.2292 -120.0842 151° Southeast 254 292 27,000  Level Los Angeles Center
06:57PM 37.1561 -120.0319 150° Southeast 253 291 27,000  Level Los Angeles Center
06:58PM 37.0947 -119.9911 152° Southeast 252 290 27,000  Level Los Angeles Center
06:59PM 37.0319 -119.9461 150° Southeast 255 293 27,000  Level Los Angeles Center
07:00PM 36.9711 -119.9033 151° Southeast 254 292 27,000  Level Los Angeles Center
07:01PM 36.9092 -119.8628 152° Southeast 251 289 27,000  Level Los Angeles Center
07:02PM 36.8367 -119.8125 151° Southeast 248 285 27,000  Level Los Angeles Center
07:03PM 36.7864 -119.7781 151° Southeast 254 292 27,000  Level Los Angeles Center
07:04PM 36.7119 -119.7300 153° Southeast 252 290 27,000  Level Los Angeles Center
07:06PM 36.6506 -119.6867 150° Southeast 252 290 27,000  Level Los Angeles Center
07:07PM 36.5892 -119.6467 152° Southeast 250 288 27,000  Level Los Angeles Center
07:08PM 36.5394 -119.6150 153° Southeast 250 288 27,000  Level Los Angeles Center
07:09PM 36.4547 -119.5550 150° Southeast 251 289 27,000  Level Los Angeles Center
07:10PM 36.3931 -119.5172 154° Southeast 248 285 27,000  Level Los Angeles Center
07:11PM 36.3322 -119.4744 150° Southeast 250 288 27,000  Level Los Angeles Center
07:12PM 36.2567 -119.4264 153° Southeast 253 291 27,000  Level Oakland Center
07:13PM 36.1947 -119.3864 152° Southeast 251 289 27,000  Level Oakland Center
07:14PM 36.1331 -119.3419 150° Southeast 254 292 27,000  Level Oakland Center
07:15PM 36.0700 -119.3042 154° Southeast 254 292 27,000  Level Oakland Center
07:16PM 36.0086 -119.2622 151° Southeast 251 289 27,000  Level Oakland Center
07:17PM 35.9481 -119.2211 151° Southeast 249 287 27,000  Level Oakland Center
07:18PM 35.8842 -119.1817 153° Southeast 254 292 27,000  Level Oakland Center
07:19PM 35.8233 -119.1411 152° Southeast 251 289 27,000  Level Oakland Center
07:20PM 35.7489 -119.0925 152° Southeast 252 290 27,000  Level Oakland Center
07:21PM 35.6869 -119.0533 153° Southeast 252 290 27,000  Level Oakland Center
07:22PM 35.6256 -119.0097 150° Southeast 253 291 27,000  Level Oakland Center
07:23PM 35.5631 -118.9728 154° Southeast 251 289 27,000  Level Oakland Center
07:24PM 35.5000 -118.9317 152° Southeast 253 291 27,000  Level Oakland Center
07:25PM 35.4378 -118.8878 150° Southeast 255 293 27,000  Level Oakland Center
07:26PM 35.3744 -118.8500 154° Southeast 253 291 27,000  Level Oakland Center
07:28PM 35.2897 -118.7914 151° Southeast 252 290 27,000  Level Los Angeles Center
07:29PM 35.2136 -118.7461 154° Southeast 254 292 27,000  Level Los Angeles Center
07:30PM 35.1628 -118.7125 152° Southeast 255 293 27,000  Level Los Angeles Center
07:31PM 35.0889 -118.6636 152° Southeast 251 289 27,000  Level Los Angeles Center
07:32PM 35.0250 -118.6264 154° Southeast 253 291 27,000  Level Los Angeles Center
07:33PM 34.9558 -118.5344 133° Southeast 265 305 27,000  Level Los Angeles Center
07:34PM 34.9100 -118.4656 129° Southeast 263 303 27,000  Level Los Angeles Center
07:35PM 34.8622 -118.4022 133° Southeast 258 297 27,000  Level Los Angeles Center
07:36PM 34.8175 -118.3328 128° Southeast 260 299 27,000  Level Los Angeles Center
07:37PM 34.7706 -118.2653 130° Southeast 262 302 27,000  Level Los Angeles Center
07:38PM 34.7219 -118.1997 132° Southeast 263 303 27,000  Level Los Angeles Center
07:39PM 34.6683 -118.1169 128° Southeast 262 302 27,000  Level Los Angeles Center
07:40PM 34.6225 -118.0489 129° Southeast 263 303 27,000  Level Los Angeles Center
07:41PM 34.5972 -117.9636 110° East 272 313 27,000  Level Los Angeles Center
07:42PM 34.5753 -117.8775 107° East 271 312 27,000  Level Los Angeles Center
07:44PM 34.5486 -117.7947 111° Southeast 267 307 27,000  Level Los Angeles Center
07:45PM 34.5144 -117.6756 109° East 270 311 27,000  Level Los Angeles Center
07:46PM 34.4892 -117.5908 110° East 270 311 27,000  Level Los Angeles Center
07:47PM 34.4622 -117.5067 111° Southeast 269 310 27,000  Level Los Angeles Center
07:48PM 34.4386 -117.4214 109° East 269 310 27,000  Level Los Angeles Center
07:49PM 34.4122 -117.3361 111° Southeast 272 313 27,000  Level Los Angeles Center
07:50PM 34.3856 -117.2514 111° Southeast 272 313 27,000  Level Los Angeles Center
07:51PM 34.3561 -117.1492 109° East 273 314 27,000  Level Los Angeles Center
07:52PM 34.3281 -117.0656 112° Southeast 271 312 27,000  Level Los Angeles Center
07:53PM 34.3033 -116.9797 109° East 271 312 27,000  Level Los Angeles Center
07:54PM 34.2781 -116.8936 110° East 274 315 27,000  Level Los Angeles Center
07:55PM 34.2447 -116.7944 112° Southeast 267 307 27,000  Level Los Angeles Center
07:56PM 34.2153 -116.6906 109° East 274 315 27,000  Level Los Angeles Center
07:57PM 34.1817 -116.5908 112° Southeast 268 308 27,000  Level Los Angeles Center
07:59PM 34.1575 -116.5044 109° East 271 312 27,000  Level Los Angeles Center
08:00PM 34.1306 -116.4192 111° Southeast 274 315 27,000  Level Los Angeles Center
08:01PM 34.0997 -116.3286 112° Southeast 268 308 27,000  Level Los Angeles Center
08:02PM 34.0753 -116.2425 109° East 270 311 27,000  Level Los Angeles Center
08:03PM 34.0469 -116.1578 112° Southeast 272 313 27,000  Level Los Angeles Center
08:04PM 34.0158 -116.0564 110° East 270 311 27,000  Level Los Angeles Center
08:05PM 33.9950 -115.9886 110° East 271 312 27,000  Level Los Angeles Center
08:06PM 33.9600 -115.8881 113° Southeast 271 312 27,000  Level Los Angeles Center
08:07PM 33.9350 -115.8031 109° East 268 308 27,000 -300 Level Los Angeles Center
08:08PM 33.9125 -115.7350 112° Southeast 271 312 26,400 -1,200 Descending Los Angeles Center
08:09PM 33.8753 -115.6231 112° Southeast 296 341 24,500 -1,680 Descending Los Angeles Center
08:10PM 33.8406 -115.5181 112° Southeast 280 322 23,000 -780 Descending Los Angeles Center
08:11PM 33.8161 -115.4353 110° East 266 306 23,000  Level Los Angeles Center
08:12PM 33.7950 -115.3711 112° Southeast 259 298 23,000  Level Los Angeles Center
08:13PM 33.7625 -115.2722 112° Southeast 262 302 23,000  Level Los Angeles Center
08:14PM 33.7358 -115.1908 111° Southeast 261 300 23,000  Level Los Angeles Center
08:15PM 33.7097 -115.1092 111° Southeast 262 302 23,000  Level Los Angeles Center
08:16PM 33.6858 -115.0072 106° East 265 305 23,000  Level Los Angeles Center
08:17PM 33.6772 -114.9206 97° East 264 304 23,000  Level Los Angeles Center
08:18PM 33.6631 -114.8350 101° East 263 303 23,000  Level Los Angeles Center
08:19PM 33.6494 -114.7497 101° East 261 300 23,000  Level Los Angeles Center
08:20PM 33.6383 -114.6653 99° East 258 297 23,000  Level Los Angeles Center
08:21PM 33.6319 -114.5956 96° East 260 299 23,000  Level Los Angeles Center
08:22PM 33.6386 -114.4739 86° East 262 302 23,000  Level Los Angeles Center
08:23PM 33.6339 -114.3872 94° East 259 298 23,000 -120 Level Los Angeles Center
08:24PM 33.6322 -114.3000 91° East 260 299 22,800 -840 Descending Los Angeles Center
08:25PM 33.6350 -114.2094 88° East 286 329 21,300 -1,680 Descending Los Angeles Center
08:26PM 33.6300 -114.0869 93° East 303 349 19,400 -1,560 Descending Los Angeles Center
08:27PM 33.6308 -114.0417 89° East 305 351 18,700 -1,680 Descending Albuquerque Center
08:28PM 33.6311 -113.9278 90° East 288 331 16,700 -1,800 Descending Albuquerque Center
08:29PM 33.6306 -113.8364 90° East 277 319 15,100 -1,860 Descending Albuquerque Center
08:30PM 33.6275 -113.7469 92° East 270 311 12,900 -1,980 Descending Albuquerque Center
08:31PM 33.6275 -113.6567 90° East 271 312 11,100 -1,020 Descending Albuquerque Center
08:32PM 33.6250 -113.5739 92° East 254 292 10,900 -120 Descending Albuquerque Center
08:33PM 33.6256 -113.4947 89° East 242 278 10,900  Level Albuquerque Center
08:34PM 33.6231 -113.3989 92° East 242 278 10,900  Level Albuquerque Center
08:35PM 33.6211 -113.3181 92° East 242 278 10,900  Level Albuquerque Center
08:36PM 33.6089 -113.2394 101° East 240 276 10,900  Level Albuquerque Center
08:37PM 33.6031 -113.1611 95° East 239 275 10,900  Level Albuquerque Center
08:38PM 33.6119 -113.0725 83° East 244 281 11,000  Climbing Albuquerque Center
08:39PM 33.6131 -112.9931 89° East 240 276 11,000 -300 Level Albuquerque Center
08:40PM 33.6475 -112.9208 60° Northeast 254 292 10,500 -1,080 Descending Albuquerque Center
08:41PM 33.6831 -112.8433 61° Northeast 269 310 8,900 -1,680 Descending Albuquerque Center
08:42PM 33.7192 -112.7578 63° Northeast 268 308 7,200 -1,440 Descending Albuquerque Center
08:43PM 33.7514 -112.6858 62° Northeast 239 275 6,000 -660 Descending Albuquerque Center
08:45PM 33.7644 -112.6083 79° East 225 259 5,900 -60 Descending Albuquerque Center
08:46PM 33.7639 -112.5322 90° East 226 260 5,900  Level Albuquerque Center
08:47PM 33.7625 -112.4561 91° East 228 262 5,900  Level Albuquerque Center
08:48PM 33.7633 -112.3797 89° East 230 265 5,900  Level Albuquerque Center
08:49PM 33.7625 -112.2875 91° East 230 265 5,900  Level Albuquerque Center
08:50PM 33.7522 -112.2172 100° East 216 249 5,900  Level Albuquerque Center
08:51PM 33.7392 -112.1481 103° East 213 245 5,900 -60 Level Albuquerque Center
08:52PM 33.7292 -112.0800 100° East 209 241 5,800 -420 Descending Albuquerque Center
08:53PM 33.7114 -112.0128 108° East 213 245 5,100 -900 Descending Albuquerque Center
08:54PM 33.6831 -111.9517 119° Southeast 211 243 4,000 -1,260 Descending Albuquerque Center
08:55PM 33.6686 -111.8972 108° East 145 167 2,500 -1,080 Descending Albuquerque Center
08:56PM 33.6414 -111.8892 166° South 126 145 1,800 -540 Descending Albuquerque Center
08:57PM 33.6236 -111.9086 222° Southwest 105 121 1,400 -420 Descending Albuquerque Center